x

South Brooks (46132) Wave Buoy

1:00pm - Fri 18th Apr 2014 All times are PDT. -7 hours from GMT.

  • Sig Wave height 8.9ft
  • Peak Period 11s
  • Wind
    13mph, 16mph gusts
  • Sea Temp 48°f
  • Air Temp 49°f
  • Sea Pressure 1016.8mb
  • South Brooks
  • South Brooks

More Historic Weather Station data

Upgrade to MSW Pro to gain access to the past 30 days of data for over 8000 Wavebouys and Weather Stations around the globe.

Join Pro

Comparision Forecast

View Surf forecast
   
Fri 04/18 1:00pm 9ft 11s 13 16 mph 1016.8mb 48f 49f
12:00pm 9ft 11s 7 9 mph 1017mb 48f 48f
11:00am 9.5ft 11s 4 7 mph 1016.7mb 48f 47f
10:00am 9.5ft 11s 2 4 mph 1016.5mb 48f 49f
9:00am 9ft 10s 4 7 mph 1016.3mb 48f 49f
8:00am 8ft 11s 9 11 mph 1015.9mb 48f 48f
7:00am 8.5ft 10s 9 11 mph 1015.4mb 48f 47f
6:00am 8.5ft 10s 11 13 mph 1014.9mb 48f 47f
5:00am 9ft 12s 13 16 mph 1014.7mb 48f 46f
4:00am 8.5ft 11s 7 9 mph 1014.6mb 48f 48f
3:00am 9ft 11s 4 9 mph 1014.7mb 48f 47f
2:00am 10ft 11s 9 13 mph 1014.4mb 48f 47f
1:00am 10ft 11s 13 18 mph 1014.3mb 48f 47f
12:00am 10ft 10s 18 20 mph 1013.9mb 48f 47f
Thu 04/17 11:00pm 9ft 11s 20 22 mph 1013.3mb 48f 47f
10:00pm 9.5ft 10s 18 22 mph 1012.6mb 48f 47f
9:00pm 10ft 10s 22 27 mph 1012mb 48f 47f
8:00pm 9ft 10s 22 29 mph 1011mb 48f 47f
7:00pm 9.5ft 12s 22 27 mph 1010.5mb 48f 48f
6:00pm 9ft 10s 22 27 mph 1009.9mb 48f 48f
5:00pm 8.5ft 10s 22 27 mph 1009.5mb 48f 48f
4:00pm 8.5ft 11s 22 27 mph 1008.9mb 48f 48f
3:00pm 9ft 11s 20 27 mph 1008.4mb 48f 48f
2:00pm 8ft 11s 20 25 mph 1008.1mb 48f 48f
1:00pm 9ft 11s 18 22 mph 1007.9mb 48f 48f
12:00pm 9ft 10s 18 20 mph 1007.3mb 48f 48f
11:00am 10ft 12s 16 20 mph 1007.1mb 48f 48f
10:00am 8.5ft 10s 16 18 mph 1006.5mb 48f 47f
9:00am 9ft 10s 13 16 mph 1006.3mb 49f 48f
8:00am 9.5ft 11s 13 16 mph 1005.8mb 49f 48f
7:00am 11ft 11s 18 22 mph 1005.3mb 49f 48f
6:00am 9.5ft 11s 13 18 mph 1004.9mb 49f 48f
5:00am 9ft 11s 18 20 mph 1004.5mb 49f 48f
4:00am 9ft 12s 25 34 mph 1003.3mb 49f 50f
3:00am 8ft 12s 22 27 mph 1003.8mb 49f 50f
2:00am 8ft 12s 27 31 mph 1004.5mb 49f 50f
1:00am 8ft 12s 27 31 mph 1005.2mb 49f 50f
12:00am 8ft 12s 20 27 mph 1006.5mb 48f 49f
Wed 04/16 11:00pm 8ft 12s 18 22 mph 1007.4mb 48f 49f
10:00pm 7.5ft 12s 13 18 mph 1008.7mb 48f 49f
9:00pm 8.5ft 12s 16 18 mph 1009.3mb 48f 48f
8:00pm 8ft 10s 18 20 mph 1009.8mb 48f 48f
7:00pm 8ft 10s 13 18 mph 1010.2mb 48f 49f
6:00pm 8.5ft 12s 16 20 mph 1010.6mb 48f 49f
5:00pm 8ft 12s 16 18 mph 1011.3mb 48f 49f
4:00pm 7ft 12s 16 18 mph 1011.6mb 49f 49f
3:00pm 8ft 11s 13 16 mph 1012.1mb 49f 49f
2:00pm 8ft 11s 13 16 mph 1012mb 49f 49f
1:00pm 8.5ft 12s 13 16 mph 1012mb 49f 49f
12:00pm 8ft 12s 13 16 mph 1012.1mb 49f 49f
11:00am 8ft 13s 13 18 mph 1011.9mb 49f 49f
10:00am 8.5ft 12s 13 18 mph 1011.6mb 48f 49f
9:00am 8.5ft 13s 13 16 mph 1011.5mb 48f 49f
8:00am 8ft 12s 13 16 mph 1012mb 48f 49f
7:00am 9ft 14s 13 18 mph 1011.3mb 48f 49f
6:00am 7.5ft 14s 11 13 mph 1011.3mb 48f 49f
5:00am 6.5ft 14s 16 20 mph 1011.3mb 48f 49f
4:00am 6ft 10s 18 22 mph 1011.8mb 48f 49f
3:00am 6ft 9s 18 22 mph 1012.3mb 49f 49f
2:00am 6ft 9s 13 18 mph 1012.9mb 49f 49f
1:00am 6.5ft 8s 13
mph
1013.6mb 49f 49f
12:00am 6ft 10s 13 16 mph 1013.8mb 49f 49f
Tue 04/15 11:00pm 5.5ft 9s 13 16 mph 1013.9mb 49f 49f
10:00pm 6ft 12s 13 18 mph 1014.3mb 49f 49f
9:00pm 6ft 10s 13
mph
1014.2mb 49f 49f
8:00pm 6ft 9s 22 27 mph 1014.4mb 49f 48f
7:00pm 6ft 12s 16 20 mph 1015.4mb 48f 49f
6:00pm 6ft 13s 18 20 mph 1016.4mb 48f 48f
5:00pm 6ft 9s 16 22 mph 1016.8mb 48f 49f
4:00pm 6ft 10s 16 20 mph 1017.8mb 48f 49f
3:00pm 6ft 10s 13 16 mph 1018.4mb 48f 49f
2:00pm 6.5ft 10s 13 16 mph 1018.4mb 48f 49f
1:00pm 6.5ft 10s 11 13 mph 1018.8mb 48f 49f
12:00pm 7ft 10s 9 11 mph 1019.2mb 48f 49f
11:00am 7.5ft 11s 7 9 mph 1019.5mb 48f 49f
10:00am 8ft 10s 9 11 mph 1019.6mb 48f 49f
9:00am 8ft 11s 7 9 mph 1019.6mb 48f 49f
8:00am 8ft 10s 7 9 mph 1019.1mb 48f 49f
7:00am 8ft 11s 11 13 mph 1019.1mb 48f 49f
6:00am 8.5ft 12s 13 16 mph 1018.9mb 48f 49f
5:00am 9ft 12s 13 18 mph 1019.1mb 48f 49f
4:00am 9ft 11s 18 22 mph 1019.2mb 48f 49f
3:00am 9ft 11s 18 22 mph 1019.3mb 48f 49f
2:00am 10ft 12s 20 25 mph 1019.9mb 48f 48f
1:00am 10ft 12s 18 25 mph 1020.3mb 48f 49f
12:00am 11ft 13s 16 20 mph 1020.8mb 48f 48f
Mon 04/14 11:00pm 12ft 12s 16 18 mph 1021.2mb 48f 49f
10:00pm 13ft 13s 16 18 mph 1021.6mb 48f 49f